High gust

Not for real navigation. The accuracy of this data is not assured See disclaimer for more information



ICAO NAME COUNTRY WIND Kt GUST Kt VIS m TEMP/DEW C BARO METAR
KMWN Mount Washington NH United States 35 48 1600 4/4 29.92 KMWN 251252Z 22035G48KT 1/16SM -RA FG VV001 04/04 RMK
KGNA Grand Marais, The Bay of Grand MN United States 27 48 9999 -11/-16 29.65 KGNA 251256Z AUTO 34027G48KT M11/M16 A2965 RMK AO1 PK WND 34048/1250 SLP060 T11061161
CWUP Cape Hooper, N. W. T. Canada 41 46 9999 -27/0 29.44 CWUP 251300Z AUTO 21041G46KT M27/ A2944 RMK PRESRR SLP028
PACZ Cape Romanzof, Cape Romanzof L AK United States 38 44 400 -1/-1 30.22 PACZ 251255Z AUTO 18038G44KT 0.25SM SN FG OVC003 M01/M01 A3022 RMK AO2 PK WND 18044/1230 SNB1156 SLP
LIEB Capo Bellavista Italy 29 42 9999 13/10 29.85 LIEB 251255Z 04029G42KT 9999 FEW018 SCT050 13/10 Q1011 RMK SCT QUK 4 QUL 4 NE VIS MAR 30 KM MON NW C

Show more